Time;durP1;ratioP1;P1;durP2;ratioP2;P2;SDS_P1;SDS_P2;PMS_P1;PMS_P2;Temp;Humidity;BMP_temperature;BMP_pressure;BME280_temperature;BME280_humidity;BME280_pressure;Samples;Min_cycle;Max_cycle;Signal;HPM_P1;HPM_P2
2023/11/10 00:00:10;;;;;;;1.70;0.60;;;11.30;85.40;;;;;;5060078;28;20953;-48
2023/11/10 00:02:39;;;;;;;1.20;0.50;;;11.30;85.60;;;;;;5055119;28;20467;-49
2023/11/10 00:05:09;;;;;;;3.03;0.83;;;11.30;85.60;;;;;;5057823;28;20479;-49
2023/11/10 00:07:38;;;;;;;1.07;0.60;;;11.30;84.90;;;;;;5059073;28;20511;-48
2023/11/10 00:10:07;;;;;;;1.30;0.60;;;11.30;85.20;;;;;;5056384;28;20814;-46
2023/11/10 00:12:37;;;;;;;2.50;0.73;;;11.30;84.80;;;;;;5060366;28;20459;-48
2023/11/10 00:15:08;;;;;;;1.43;0.70;;;11.30;85.10;;;;;;5058550;28;20432;-48
2023/11/10 00:17:40;;;;;;;2.00;0.67;;;11.30;85.20;;;;;;5056048;28;21017;-47
2023/11/10 00:20:09;;;;;;;1.87;0.47;;;11.30;84.70;;;;;;5062262;28;20650;-47
2023/11/10 00:22:39;;;;;;;1.20;0.50;;;11.30;85.20;;;;;;5057734;28;20483;-49
2023/11/10 00:25:08;;;;;;;1.10;0.50;;;11.30;85.50;;;;;;5060159;28;20451;-46
2023/11/10 00:27:37;;;;;;;1.33;0.70;;;11.30;85.50;;;;;;5055232;28;20533;-46
2023/11/10 00:30:10;;;;;;;2.13;0.80;;;11.30;85.20;;;;;;5055325;28;20476;-47
2023/11/10 00:32:39;;;;;;;1.33;0.50;;;11.30;85.50;;;;;;5054785;28;20471;-48
2023/11/10 00:35:09;;;;;;;2.60;0.70;;;11.30;85.60;;;;;;5057621;28;20455;-48
2023/11/10 00:37:38;;;;;;;1.47;0.70;;;11.30;85.10;;;;;;5073389;28;20478;-47
2023/11/10 00:40:08;;;;;;;2.40;0.70;;;11.30;85.20;;;;;;5062930;28;20895;-48
2023/11/10 00:42:38;;;;;;;4.40;0.60;;;11.30;85.50;;;;;;5061572;28;20992;-47
2023/11/10 00:45:07;;;;;;;0.80;0.40;;;11.30;85.40;;;;;;5055645;28;20510;-50
2023/11/10 00:47:35;;;;;;;1.63;0.60;;;11.30;85.50;;;;;;5054914;28;21042;-47
2023/11/10 00:50:05;;;;;;;1.83;0.50;;;11.30;85.20;;;;;;5062627;28;20473;-48
2023/11/10 00:52:33;;;;;;;1.37;0.60;;;11.30;85.50;;;;;;5064961;28;20483;-47
2023/11/10 00:55:01;;;;;;;1.97;1.07;;;11.30;85.40;;;;;;5055900;28;20446;-49
2023/11/10 00:57:29;;;;;;;1.83;0.70;;;11.30;84.70;;;;;;5063964;28;20466;-48
2023/11/10 01:00:03;;;;;;;1.30;0.50;;;11.30;85.30;;;;;;5054387;28;20431;-48
2023/11/10 01:02:33;;;;;;;1.03;0.47;;;11.30;85.30;;;;;;5054616;28;20470;-47
2023/11/10 01:05:01;;;;;;;1.50;0.57;;;11.30;85.10;;;;;;5055271;28;20936;-47
2023/11/10 01:07:30;;;;;;;1.80;0.67;;;11.30;84.70;;;;;;5055892;28;20563;-49
2023/11/10 01:10:01;;;;;;;2.03;0.60;;;11.30;85.40;;;;;;5053323;28;21058;-46
2023/11/10 01:12:32;;;;;;;1.47;0.70;;;11.30;85.40;;;;;;5052125;28;20459;-48
2023/11/10 01:15:01;;;;;;;1.43;0.50;;;11.30;85.30;;;;;;5057161;28;20489;-48
2023/11/10 01:17:31;;;;;;;1.87;0.70;;;11.30;85.20;;;;;;5053543;28;20486;-48
2023/11/10 01:20:00;;;;;;;1.50;0.63;;;11.30;85.30;;;;;;5054115;28;21035;-48
2023/11/10 01:22:28;;;;;;;4.17;0.80;;;11.30;84.90;;;;;;5053943;28;20550;-47
2023/11/10 01:24:56;;;;;;;2.60;0.70;;;11.20;85.20;;;;;;5058763;28;21099;-49
2023/11/10 01:27:25;;;;;;;1.30;0.60;;;11.30;85.40;;;;;;5055302;28;20466;-48
2023/11/10 01:29:53;;;;;;;0.87;0.40;;;11.30;85.00;;;;;;5051090;28;20558;-48
2023/11/10 01:32:23;;;;;;;1.03;0.50;;;11.20;85.20;;;;;;5051002;28;20459;-51
2023/11/10 01:34:51;;;;;;;1.30;0.60;;;11.30;85.50;;;;;;5060385;28;20456;-49
2023/11/10 01:37:22;;;;;;;1.73;0.57;;;11.30;85.40;;;;;;5059608;28;20466;-48
2023/11/10 01:39:50;;;;;;;1.57;0.90;;;11.30;85.40;;;;;;5062314;28;20460;-47
2023/11/10 01:42:18;;;;;;;1.20;0.60;;;11.30;85.50;;;;;;5052426;28;20455;-47
2023/11/10 01:44:46;;;;;;;1.47;0.70;;;11.30;85.50;;;;;;5066255;28;20779;-48
2023/11/10 01:47:14;;;;;;;1.50;0.50;;;11.30;85.40;;;;;;5050691;28;20469;-47
2023/11/10 01:49:44;;;;;;;1.20;0.40;;;11.30;85.40;;;;;;5055519;28;20475;-46
2023/11/10 01:52:14;;;;;;;4.30;0.90;;;11.30;85.20;;;;;;5057535;28;20558;-47
2023/11/10 01:54:43;;;;;;;2.00;0.40;;;11.20;85.30;;;;;;5060832;28;20457;-48
2023/11/10 01:57:11;;;;;;;1.13;0.50;;;11.20;85.60;;;;;;5056348;28;20498;-48
2023/11/10 01:59:43;;;;;;;1.40;0.50;;;11.20;85.60;;;;;;5055140;28;20518;-47
2023/11/10 02:02:12;;;;;;;1.30;0.50;;;11.20;85.70;;;;;;5059331;28;20451;-46
2023/11/10 02:04:42;;;;;;;1.00;0.50;;;11.20;85.60;;;;;;5058018;28;20524;-47
2023/11/10 02:07:11;;;;;;;1.67;0.60;;;11.20;85.60;;;;;;5059868;28;20463;-45
2023/11/10 02:09:40;;;;;;;1.13;0.53;;;11.20;85.70;;;;;;5058849;28;20475;-48
2023/11/10 02:12:09;;;;;;;1.00;0.50;;;11.20;85.60;;;;;;5055338;28;20454;-48
2023/11/10 02:14:37;;;;;;;1.03;0.37;;;11.20;85.70;;;;;;5056451;28;20488;-47
2023/11/10 02:17:06;;;;;;;2.10;0.90;;;11.20;85.70;;;;;;5055646;28;20468;-47
2023/11/10 02:19:34;;;;;;;1.10;0.60;;;11.20;85.70;;;;;;5058793;28;20433;-50
2023/11/10 02:22:04;;;;;;;1.53;0.60;;;11.20;85.60;;;;;;5058882;28;20433;-46
2023/11/10 02:24:36;;;;;;;1.23;0.57;;;11.20;85.70;;;;;;5057251;28;20539;-49
2023/11/10 02:27:06;;;;;;;1.20;0.50;;;11.20;85.70;;;;;;5054139;28;20573;-48
2023/11/10 02:29:39;;;;;;;1.20;0.70;;;11.20;85.60;;;;;;5057508;28;20464;-47
2023/11/10 02:32:10;;;;;;;1.37;0.70;;;11.20;85.70;;;;;;5060777;28;20885;-47
2023/11/10 02:34:38;;;;;;;1.47;0.60;;;11.20;85.50;;;;;;5056911;28;20494;-47
2023/11/10 02:37:08;;;;;;;3.03;0.60;;;11.20;85.60;;;;;;5060686;28;20456;-48
2023/11/10 02:39:37;;;;;;;1.63;0.50;;;11.20;85.60;;;;;;5051792;28;20531;-48
2023/11/10 02:42:06;;;;;;;1.20;0.67;;;11.20;85.70;;;;;;5052850;28;20437;-49
2023/11/10 02:44:34;;;;;;;1.97;0.43;;;11.20;85.60;;;;;;5055574;28;20916;-48
2023/11/10 02:47:03;;;;;;;1.80;0.60;;;11.20;85.60;;;;;;5058617;28;20470;-47
2023/11/10 02:49:31;;;;;;;1.30;0.50;;;11.20;85.70;;;;;;5054138;28;20772;-48
2023/11/10 02:51:59;;;;;;;2.63;0.70;;;11.20;85.50;;;;;;5057180;28;20428;-49
2023/11/10 02:54:27;;;;;;;1.30;0.60;;;11.10;85.60;;;;;;5063300;28;20855;-47
2023/11/10 02:56:55;;;;;;;2.67;0.80;;;11.10;85.70;;;;;;5061121;28;20444;-46
2023/11/10 02:59:25;;;;;;;1.07;0.60;;;11.10;85.50;;;;;;5057051;28;20439;-49
2023/11/10 03:01:53;;;;;;;2.07;0.70;;;11.10;85.30;;;;;;5058495;28;20451;-44
2023/11/10 03:04:21;;;;;;;1.30;0.60;;;11.10;85.40;;;;;;5061956;28;21115;-46
2023/11/10 03:06:49;;;;;;;2.40;0.90;;;11.20;85.60;;;;;;5058828;28;20541;-48
2023/11/10 03:09:22;;;;;;;1.00;0.40;;;11.10;85.20;;;;;;5059742;28;20540;-47
2023/11/10 03:11:51;;;;;;;1.20;0.50;;;11.10;85.20;;;;;;5065569;28;20443;-47
2023/11/10 03:14:22;;;;;;;1.67;0.53;;;11.10;85.20;;;;;;5058482;28;20434;-48
2023/11/10 03:16:51;;;;;;;1.80;0.60;;;11.10;85.30;;;;;;5058855;28;20520;-47
2023/11/10 03:19:19;;;;;;;1.73;0.60;;;11.10;85.10;;;;;;5058850;28;20455;-49
2023/11/10 03:21:48;;;;;;;1.80;0.70;;;11.10;85.20;;;;;;5058058;28;20436;-49
2023/11/10 03:24:16;;;;;;;1.37;0.60;;;11.10;85.10;;;;;;5062293;28;21045;-47
2023/11/10 03:26:44;;;;;;;1.47;0.60;;;11.10;84.90;;;;;;5058675;28;20973;-49
2023/11/10 03:29:12;;;;;;;1.87;0.60;;;11.10;85.10;;;;;;5059890;28;20466;-48
2023/11/10 03:31:40;;;;;;;1.73;0.60;;;11.10;85.20;;;;;;5052559;28;20471;-49
2023/11/10 03:34:10;;;;;;;2.13;0.70;;;11.10;85.20;;;;;;5058166;28;20455;-48
2023/11/10 03:36:38;;;;;;;1.10;0.57;;;11.10;85.20;;;;;;5059838;28;20458;-48
2023/11/10 03:39:06;;;;;;;2.90;0.77;;;11.10;85.20;;;;;;5058228;28;20844;-49
2023/11/10 03:41:35;;;;;;;3.00;0.60;;;11.10;84.90;;;;;;5057385;28;20426;-51
2023/11/10 03:44:04;;;;;;;1.47;0.63;;;11.10;84.90;;;;;;5058124;28;20451;-47
2023/11/10 03:46:32;;;;;;;1.63;0.50;;;11.00;85.00;;;;;;5058024;28;20454;-51
2023/11/10 03:49:00;;;;;;;1.23;0.70;;;11.10;85.30;;;;;;5056813;28;20561;-48
2023/11/10 03:51:30;;;;;;;1.00;0.60;;;11.10;85.40;;;;;;5054527;28;21268;-47
2023/11/10 03:53:58;;;;;;;2.60;0.60;;;11.00;85.20;;;;;;5059758;28;20569;-48
2023/11/10 03:56:26;;;;;;;1.37;0.80;;;11.00;85.10;;;;;;5056680;28;20522;-48
2023/11/10 03:58:55;;;;;;;2.60;0.80;;;11.00;85.20;;;;;;5056236;28;20496;-48
2023/11/10 04:01:26;;;;;;;1.97;0.60;;;11.00;85.20;;;;;;5053680;28;20441;-47
2023/11/10 04:03:54;;;;;;;0.90;0.40;;;11.10;85.40;;;;;;5056270;28;20479;-48
2023/11/10 04:06:22;;;;;;;3.03;0.60;;;11.10;85.20;;;;;;5055730;28;20534;-46
2023/11/10 04:09:07;;;;;;;2.07;0.70;;;11.10;85.30;;;;;;5059144;28;20849;-49
2023/11/10 04:11:35;;;;;;;1.90;0.57;;;11.00;85.20;;;;;;5057109;28;20489;-46
2023/11/10 04:14:03;;;;;;;1.27;0.53;;;11.00;85.40;;;;;;5058987;28;20459;-49
2023/11/10 04:16:31;;;;;;;2.07;0.80;;;11.00;85.20;;;;;;5057621;28;20840;-48
2023/11/10 04:18:59;;;;;;;1.30;0.77;;;11.00;85.20;;;;;;5057646;28;20519;-49
2023/11/10 04:21:27;;;;;;;2.60;0.60;;;11.00;84.80;;;;;;5055420;28;20928;-46
2023/11/10 04:23:57;;;;;;;1.70;0.70;;;11.00;85.30;;;;;;5053315;28;20510;-48
2023/11/10 04:26:27;;;;;;;2.10;0.50;;;11.00;85.40;;;;;;5056279;28;20455;-47
2023/11/10 04:28:56;;;;;;;2.17;0.80;;;11.00;85.30;;;;;;5058076;28;20469;-48
2023/11/10 04:31:24;;;;;;;1.50;0.70;;;11.00;85.30;;;;;;5060094;28;20475;-46
2023/11/10 04:33:52;;;;;;;1.23;0.60;;;11.00;84.90;;;;;;5057429;28;21006;-48
2023/11/10 04:36:21;;;;;;;1.57;0.70;;;11.00;84.80;;;;;;5055487;28;20490;-47
2023/11/10 04:38:50;;;;;;;2.13;0.60;;;11.00;85.20;;;;;;5054001;28;20469;-49
2023/11/10 04:41:22;;;;;;;1.80;0.60;;;11.00;84.80;;;;;;5060797;28;20499;-46
2023/11/10 04:43:51;;;;;;;2.20;0.73;;;11.00;84.90;;;;;;5057389;28;20465;-47
2023/11/10 04:46:19;;;;;;;2.30;0.87;;;11.00;85.20;;;;;;5056010;28;20919;-48
2023/11/10 04:48:50;;;;;;;0.97;0.50;;;11.00;84.90;;;;;;5054091;28;20482;-50
2023/11/10 04:51:18;;;;;;;1.40;0.53;;;11.00;85.20;;;;;;5053033;28;20452;-47
2023/11/10 04:53:49;;;;;;;1.30;0.60;;;11.00;85.40;;;;;;5054436;28;20471;-47
2023/11/10 04:56:18;;;;;;;1.47;0.50;;;11.00;85.20;;;;;;5060137;28;20506;-48
2023/11/10 04:58:46;;;;;;;2.50;1.07;;;11.00;85.20;;;;;;5054175;28;20472;-48
2023/11/10 05:01:19;;;;;;;1.50;0.70;;;11.00;85.00;;;;;;5053786;28;20428;-50
2023/11/10 05:03:48;;;;;;;1.77;0.87;;;11.00;85.20;;;;;;5056068;28;20528;-49
2023/11/10 05:06:16;;;;;;;1.00;0.40;;;11.00;85.10;;;;;;5054632;28;20467;-47
2023/11/10 05:08:44;;;;;;;2.50;0.63;;;11.00;85.30;;;;;;5054187;28;20525;-49
2023/11/10 05:11:12;;;;;;;1.20;0.50;;;11.00;85.20;;;;;;5060127;28;20465;-46
2023/11/10 05:13:40;;;;;;;1.67;0.60;;;11.00;85.10;;;;;;5058239;28;20453;-47
2023/11/10 05:16:08;;;;;;;1.80;0.70;;;11.00;85.20;;;;;;5055982;28;20474;-48
2023/11/10 05:18:40;;;;;;;1.33;0.70;;;11.00;85.20;;;;;;5050641;28;21251;-47
2023/11/10 05:21:11;;;;;;;1.30;0.50;;;11.00;85.30;;;;;;5060564;28;20435;-45
2023/11/10 05:23:40;;;;;;;1.10;0.50;;;11.00;85.20;;;;;;5057949;28;20463;-46
2023/11/10 05:26:08;;;;;;;4.10;0.80;;;11.00;85.30;;;;;;5064668;28;20456;-45
2023/11/10 05:28:37;;;;;;;1.37;0.57;;;11.00;85.20;;;;;;5061853;28;20468;-49
2023/11/10 05:31:05;;;;;;;1.43;0.60;;;11.00;85.20;;;;;;5053083;28;20471;-47
2023/11/10 05:33:33;;;;;;;2.33;0.90;;;11.00;85.30;;;;;;5053468;28;20867;-46
2023/11/10 05:36:03;;;;;;;1.50;0.80;;;10.90;85.10;;;;;;5059119;28;20468;-46
2023/11/10 05:38:31;;;;;;;3.20;0.80;;;11.00;85.40;;;;;;5051223;28;20907;-46
2023/11/10 05:40:59;;;;;;;1.17;0.50;;;11.00;85.50;;;;;;5057814;28;20435;-48
2023/11/10 05:43:27;;;;;;;1.97;0.87;;;11.00;85.50;;;;;;5051204;28;20469;-48
2023/11/10 05:45:55;;;;;;;1.93;0.70;;;11.00;85.50;;;;;;5054522;28;20463;-48
2023/11/10 05:48:23;;;;;;;2.17;0.80;;;10.90;85.30;;;;;;5054581;28;20486;-47
2023/11/10 05:50:51;;;;;;;1.53;0.60;;;10.90;85.20;;;;;;5057559;28;20452;-46
2023/11/10 05:53:21;;;;;;;4.10;0.93;;;10.90;85.30;;;;;;5055901;28;20492;-48
2023/11/10 05:55:51;;;;;;;1.50;0.60;;;10.90;85.40;;;;;;5056390;28;20481;-46
2023/11/10 05:58:19;;;;;;;1.87;0.70;;;10.90;85.30;;;;;;5057867;28;20480;-49
2023/11/10 06:00:50;;;;;;;1.50;0.83;;;10.90;86.40;;;;;;5055230;28;20432;-47
2023/11/10 06:03:18;;;;;;;1.90;0.70;;;10.90;85.20;;;;;;5052219;28;20962;-47
2023/11/10 06:05:47;;;;;;;1.80;0.43;;;10.90;85.30;;;;;;5057106;28;21014;-47
2023/11/10 06:08:16;;;;;;;1.73;0.70;;;10.90;85.20;;;;;;5056140;28;20471;-47
2023/11/10 06:10:46;;;;;;;1.20;0.43;;;10.90;85.20;;;;;;5058356;28;20447;-46
2023/11/10 06:13:14;;;;;;;2.60;0.80;;;10.90;85.00;;;;;;5059526;28;20532;-46
2023/11/10 06:15:43;;;;;;;2.20;0.57;;;10.90;85.00;;;;;;5050195;28;20477;-45
2023/11/10 06:18:11;;;;;;;1.30;0.47;;;10.90;85.10;;;;;;5056129;28;20486;-48
2023/11/10 06:20:40;;;;;;;1.67;0.80;;;10.90;85.00;;;;;;5051904;28;20442;-47
2023/11/10 06:23:08;;;;;;;1.70;0.43;;;10.90;85.20;;;;;;5059570;28;21063;-48
2023/11/10 06:25:36;;;;;;;1.13;0.53;;;10.90;85.00;;;;;;5054707;28;20495;-47
2023/11/10 06:28:05;;;;;;;1.30;0.60;;;10.90;85.00;;;;;;5061571;28;20464;-47
2023/11/10 06:30:33;;;;;;;1.97;0.70;;;10.90;84.90;;;;;;5060188;28;20451;-48
2023/11/10 06:33:05;;;;;;;1.73;0.40;;;10.90;84.90;;;;;;5048023;28;20481;-48
2023/11/10 06:35:33;;;;;;;1.00;0.50;;;10.90;84.60;;;;;;5047160;28;20451;-48
2023/11/10 06:38:02;;;;;;;1.47;0.67;;;10.90;84.70;;;;;;5041811;28;20472;-47
2023/11/10 06:40:30;;;;;;;2.33;0.50;;;10.90;85.00;;;;;;5045801;28;20500;-48
2023/11/10 06:42:58;;;;;;;2.60;0.60;;;10.90;84.80;;;;;;5043589;28;20834;-48
2023/11/10 06:45:28;;;;;;;2.10;0.60;;;10.90;84.90;;;;;;5041688;28;20499;-48
2023/11/10 06:47:59;;;;;;;1.77;0.50;;;10.90;84.90;;;;;;5039165;28;20481;-46
2023/11/10 06:50:28;;;;;;;1.80;0.50;;;10.90;85.00;;;;;;5048139;28;20432;-47
2023/11/10 06:52:56;;;;;;;1.10;0.50;;;10.90;86.10;;;;;;5042255;28;20881;-48
2023/11/10 06:55:24;;;;;;;1.30;0.40;;;10.90;84.90;;;;;;5043631;28;20459;-46
2023/11/10 06:57:53;;;;;;;1.23;0.60;;;10.90;84.90;;;;;;5044963;28;20742;-46
2023/11/10 07:00:26;;;;;;;1.40;0.50;;;10.90;84.70;;;;;;5044162;28;20453;-47
2023/11/10 07:02:58;;;;;;;1.43;0.70;;;10.90;84.90;;;;;;5046095;28;20872;-46
2023/11/10 07:05:26;;;;;;;1.70;0.80;;;10.90;84.60;;;;;;5045217;28;20419;-46
2023/11/10 07:07:54;;;;;;;2.37;0.70;;;10.90;84.70;;;;;;5041902;28;20548;-48
2023/11/10 07:10:23;;;;;;;1.63;0.63;;;10.90;84.60;;;;;;5043067;28;20458;-46
2023/11/10 07:12:51;;;;;;;1.50;0.50;;;10.90;84.60;;;;;;5053231;28;20483;-47
2023/11/10 07:15:19;;;;;;;2.13;0.57;;;10.90;84.50;;;;;;5060360;28;20817;-46
2023/11/10 07:17:47;;;;;;;1.43;0.30;;;10.90;84.50;;;;;;5057092;28;20466;-46
2023/11/10 07:20:17;;;;;;;1.47;0.50;;;10.90;84.70;;;;;;5041569;28;20934;-49
2023/11/10 07:22:48;;;;;;;1.43;0.43;;;10.90;84.80;;;;;;5045217;28;21008;-48
2023/11/10 07:25:24;;;;;;;1.60;0.90;;;10.90;84.40;;;;;;5040888;28;20809;-47
2023/11/10 07:27:52;;;;;;;2.47;0.70;;;10.90;84.50;;;;;;5040903;28;20485;-47
2023/11/10 07:30:21;;;;;;;1.93;0.60;;;10.90;84.30;;;;;;5044580;28;20851;-47
2023/11/10 07:32:50;;;;;;;1.10;0.70;;;10.90;84.50;;;;;;5044079;28;20494;-48
2023/11/10 07:35:20;;;;;;;2.80;0.60;;;10.90;84.70;;;;;;5057592;28;20439;-48
2023/11/10 07:37:49;;;;;;;1.40;0.70;;;10.90;84.40;;;;;;5055837;28;20473;-49
2023/11/10 07:40:18;;;;;;;1.57;0.80;;;10.90;84.30;;;;;;5043730;28;20973;-48
2023/11/10 07:42:48;;;;;;;1.73;0.70;;;10.90;84.20;;;;;;5047979;28;20466;-49
2023/11/10 07:45:17;;;;;;;1.13;0.50;;;10.90;84.20;;;;;;5050247;28;20446;-49
2023/11/10 07:47:46;;;;;;;1.67;0.70;;;10.90;84.20;;;;;;5040757;28;20515;-47
2023/11/10 07:50:15;;;;;;;1.93;0.70;;;10.90;84.50;;;;;;5049336;28;20532;-48
2023/11/10 07:52:48;;;;;;;1.57;0.90;;;10.90;84.50;;;;;;5047234;28;20486;-47
2023/11/10 07:55:17;;;;;;;2.00;0.73;;;10.90;84.30;;;;;;5041705;28;20460;-47
2023/11/10 07:57:47;;;;;;;1.27;0.67;;;10.90;84.30;;;;;;5044417;28;20461;-48
2023/11/10 08:00:18;;;;;;;1.80;0.97;;;10.90;84.20;;;;;;5044471;28;20832;-48
2023/11/10 08:02:51;;;;;;;4.73;0.90;;;10.90;84.30;;;;;;5044045;28;20549;-47
2023/11/10 08:05:20;;;;;;;1.47;0.60;;;10.90;84.20;;;;;;5049686;28;20922;-48
2023/11/10 08:07:52;;;;;;;1.57;0.57;;;10.90;84.20;;;;;;5047466;28;20470;-47
2023/11/10 08:10:20;;;;;;;1.43;0.73;;;10.80;84.10;;;;;;5042021;28;20988;-47
2023/11/10 08:12:49;;;;;;;4.03;0.87;;;10.80;84.10;;;;;;5042183;28;21013;-46
2023/11/10 08:15:18;;;;;;;1.73;0.87;;;10.80;84.10;;;;;;5045591;28;20940;-47
2023/11/10 08:17:47;;;;;;;1.27;0.57;;;10.80;84.10;;;;;;5040097;28;20470;-48
2023/11/10 08:20:15;;;;;;;1.60;0.80;;;10.80;84.10;;;;;;5045249;28;20465;-48
2023/11/10 08:22:44;;;;;;;1.30;0.50;;;10.80;84.10;;;;;;5041285;28;20874;-47
2023/11/10 08:25:13;;;;;;;3.27;0.63;;;10.90;84.20;;;;;;5045919;28;20454;-47
2023/11/10 08:27:41;;;;;;;1.50;0.70;;;10.90;84.20;;;;;;5048059;28;20467;-47
2023/11/10 08:30:11;;;;;;;1.20;0.73;;;10.90;84.20;;;;;;5039349;28;20552;-48
2023/11/10 08:32:40;;;;;;;2.03;0.80;;;10.90;84.20;;;;;;5038153;28;20481;-47
2023/11/10 08:35:09;;;;;;;4.10;1.00;;;10.90;84.20;;;;;;5041157;28;20532;-48
2023/11/10 08:37:37;;;;;;;1.10;0.57;;;10.90;84.20;;;;;;5043726;28;20461;-47
2023/11/10 08:40:09;;;;;;;1.57;0.40;;;10.90;84.30;;;;;;5041320;28;20833;-47
2023/11/10 08:42:41;;;;;;;1.60;0.50;;;10.90;84.30;;;;;;5043708;28;20470;-47
2023/11/10 08:45:14;;;;;;;1.83;0.53;;;11.00;84.30;;;;;;5043736;28;20448;-45
2023/11/10 08:47:43;;;;;;;1.90;1.00;;;10.90;84.30;;;;;;5043167;28;20460;-48
2023/11/10 08:50:12;;;;;;;1.70;0.60;;;10.90;84.20;;;;;;5043077;28;20985;-47
2023/11/10 08:52:41;;;;;;;1.43;0.50;;;11.00;84.40;;;;;;5044228;28;20474;-47
2023/11/10 08:55:13;;;;;;;1.50;0.60;;;11.00;84.30;;;;;;5042417;28;20462;-47
2023/11/10 08:57:43;;;;;;;1.20;0.87;;;11.00;84.20;;;;;;5042358;28;20473;-47
2023/11/10 09:00:14;;;;;;;1.77;1.13;;;11.00;83.70;;;;;;5047828;28;20954;-45
2023/11/10 09:02:43;;;;;;;2.73;0.67;;;11.00;84.30;;;;;;5045441;28;20551;-48
2023/11/10 09:05:12;;;;;;;1.83;1.07;;;11.00;84.30;;;;;;5038460;28;20460;-46
2023/11/10 09:07:41;;;;;;;1.50;0.70;;;11.00;84.30;;;;;;5038818;28;20467;-46
2023/11/10 09:10:11;;;;;;;1.47;0.57;;;11.00;84.20;;;;;;5045112;28;20444;-49
2023/11/10 09:12:43;;;;;;;2.27;0.80;;;11.00;84.30;;;;;;5046174;28;20480;-47
2023/11/10 09:15:14;;;;;;;2.13;0.53;;;11.00;84.10;;;;;;5045802;28;20437;-47
2023/11/10 09:17:43;;;;;;;2.20;0.70;;;11.00;84.00;;;;;;5045482;28;20469;-48
2023/11/10 09:20:15;;;;;;;1.40;0.60;;;11.00;84.00;;;;;;5047557;28;20534;-48
2023/11/10 09:22:44;;;;;;;1.37;0.50;;;11.10;84.00;;;;;;5044961;28;20995;-47
2023/11/10 09:25:19;;;;;;;1.87;0.50;;;11.00;83.80;;;;;;5042274;28;20446;-46
2023/11/10 09:27:49;;;;;;;1.77;0.60;;;11.00;83.80;;;;;;5041218;28;20552;-48
2023/11/10 09:30:17;;;;;;;1.50;0.80;;;11.00;83.90;;;;;;5047709;28;20806;-46
2023/11/10 09:32:48;;;;;;;1.47;0.60;;;11.00;83.50;;;;;;5044204;28;20570;-48
2023/11/10 09:35:16;;;;;;;4.33;0.57;;;11.00;83.50;;;;;;5045979;28;20434;-48
2023/11/10 09:37:46;;;;;;;2.43;0.70;;;11.00;83.80;;;;;;5046605;28;20463;-46
2023/11/10 09:40:19;;;;;;;2.83;0.73;;;11.10;84.00;;;;;;5042835;28;20531;-46
2023/11/10 09:42:49;;;;;;;2.13;0.70;;;11.00;83.70;;;;;;5043836;28;20467;-48
2023/11/10 09:45:18;;;;;;;1.03;0.50;;;11.00;83.80;;;;;;5043868;28;20434;-47
2023/11/10 09:47:55;;;;;;;2.70;0.67;;;11.00;83.70;;;;;;5044350;28;20524;-47
2023/11/10 09:50:25;;;;;;;3.10;0.90;;;11.10;83.20;;;;;;5043744;28;20471;-47
2023/11/10 09:53:00;;;;;;;1.87;0.70;;;11.00;83.10;;;;;;5044983;28;20463;-47
2023/11/10 09:55:29;;;;;;;2.13;0.80;;;11.00;83.10;;;;;;5046034;28;20462;-47
2023/11/10 09:57:59;;;;;;;1.40;0.50;;;11.00;83.10;;;;;;5043647;28;20533;-46
2023/11/10 10:00:28;;;;;;;1.33;0.70;;;11.00;83.40;;;;;;5046610;28;20441;-47
2023/11/10 10:02:58;;;;;;;2.03;0.80;;;11.00;83.30;;;;;;5047437;28;20828;-48
2023/11/10 10:05:27;;;;;;;1.47;0.50;;;11.00;82.20;;;;;;5048957;28;20462;-47
2023/11/10 10:07:55;;;;;;;3.63;0.80;;;11.00;82.80;;;;;;5046499;28;20472;-46
2023/11/10 10:10:25;;;;;;;1.10;0.57;;;11.00;82.10;;;;;;5047200;28;20469;-49
2023/11/10 10:12:53;;;;;;;1.40;0.80;;;11.00;82.30;;;;;;5047767;28;20464;-49
2023/11/10 10:15:31;;;;;;;1.80;1.00;;;11.00;82.70;;;;;;5050076;28;20521;-48
2023/11/10 10:18:09;;;;;;;3.97;1.10;;;11.00;82.50;;;;;;5047771;28;21000;-46
2023/11/10 10:20:40;;;;;;;2.03;0.70;;;11.00;82.30;;;;;;5045016;28;20481;-48
2023/11/10 10:23:09;;;;;;;3.50;0.97;;;11.00;82.10;;;;;;5044660;28;20982;-47
2023/11/10 10:25:41;;;;;;;1.47;1.00;;;11.00;82.30;;;;;;5047661;28;20439;-46
2023/11/10 10:28:10;;;;;;;1.83;0.80;;;11.00;82.70;;;;;;5047181;28;20475;-47
2023/11/10 10:30:41;;;;;;;1.90;0.83;;;11.00;82.20;;;;;;5046523;28;20540;-48
2023/11/10 10:33:10;;;;;;;3.83;1.20;;;10.90;82.10;;;;;;5044152;28;20491;-49
2023/11/10 10:35:39;;;;;;;3.37;0.97;;;10.90;82.50;;;;;;5049723;28;20466;-48
2023/11/10 10:38:10;;;;;;;3.47;0.80;;;11.00;82.70;;;;;;5045861;28;20463;-50
2023/11/10 10:40:39;;;;;;;2.27;0.80;;;10.90;82.10;;;;;;5040260;28;20447;-47
2023/11/10 10:43:08;;;;;;;1.73;0.50;;;10.90;82.30;;;;;;5046682;28;20473;-47
2023/11/10 10:45:37;;;;;;;1.73;0.67;;;10.90;82.50;;;;;;5048747;28;20524;-45
2023/11/10 10:48:08;;;;;;;2.27;0.77;;;10.90;82.70;;;;;;5042375;28;20871;-48
2023/11/10 10:50:38;;;;;;;2.63;0.70;;;10.90;82.40;;;;;;5047666;28;20995;-47
2023/11/10 10:53:08;;;;;;;1.73;0.80;;;10.90;82.60;;;;;;5049863;28;20465;-48
2023/11/10 10:55:41;;;;;;;1.57;0.73;;;10.90;82.90;;;;;;5044355;28;20980;-46
2023/11/10 10:58:10;;;;;;;1.20;0.77;;;10.90;82.70;;;;;;5046864;28;21030;-48
2023/11/10 11:00:38;;;;;;;2.50;1.13;;;10.90;83.10;;;;;;5047800;28;20832;-46
2023/11/10 11:03:25;;;;;;;2.93;1.00;;;10.90;82.80;;;;;;5047480;28;20490;-47
2023/11/10 11:06:08;;;;;;;2.00;1.33;;;10.90;83.00;;;;;;5049561;28;20480;-46
2023/11/10 11:08:55;;;;;;;1.00;0.50;;;10.90;82.50;;;;;;5045284;28;20467;-47
2023/11/10 11:11:52;;;;;;;2.70;1.10;;;10.90;82.60;;;;;;5048482;28;20444;-45
2023/11/10 11:14:37;;;;;;;2.87;0.93;;;10.90;82.50;;;;;;5042434;28;20498;-48
2023/11/10 11:17:34;;;;;;;1.00;0.50;;;10.90;82.60;;;;;;5044815;28;20474;-49
2023/11/10 11:20:05;;;;;;;4.97;1.03;;;10.90;82.80;;;;;;5022640;28;20448;-48
2023/11/10 11:22:37;;;;;;;1.70;0.53;;;10.90;83.00;;;;;;5043419;28;20470;-49
2023/11/10 11:25:08;;;;;;;2.03;0.97;;;10.90;82.90;;;;;;5041550;28;20451;-47
2023/11/10 11:27:37;;;;;;;2.47;0.90;;;10.90;82.80;;;;;;5046073;28;20520;-48
2023/11/10 11:30:08;;;;;;;1.93;0.80;;;10.90;82.70;;;;;;5066444;28;20564;-49
2023/11/10 11:32:40;;;;;;;2.20;0.60;;;10.90;82.60;;;;;;5058457;28;20489;-48
2023/11/10 11:35:15;;;;;;;2.17;1.00;;;10.90;83.10;;;;;;5040964;28;20988;-48
2023/11/10 11:37:44;;;;;;;3.37;1.03;;;10.90;82.90;;;;;;5038678;28;20485;-47
2023/11/10 11:40:14;;;;;;;2.20;0.70;;;10.90;82.70;;;;;;5042335;28;20447;-47
2023/11/10 11:42:42;;;;;;;2.80;0.63;;;11.00;82.90;;;;;;5041381;28;20490;-48
2023/11/10 11:45:12;;;;;;;1.43;0.60;;;10.90;82.90;;;;;;5041103;28;20507;-47
2023/11/10 11:47:42;;;;;;;1.40;0.70;;;10.90;83.00;;;;;;5046121;28;20460;-47
2023/11/10 11:50:12;;;;;;;1.30;1.00;;;10.90;82.90;;;;;;5063374;28;20441;-48
2023/11/10 11:52:41;;;;;;;1.70;0.70;;;10.90;83.10;;;;;;5061225;28;20457;-48
2023/11/10 11:55:10;;;;;;;1.60;0.60;;;10.90;82.70;;;;;;5058999;28;20461;-47
2023/11/10 11:57:38;;;;;;;1.53;0.70;;;10.90;83.20;;;;;;5057278;28;20894;-47
2023/11/10 12:00:08;;;;;;;2.20;0.60;;;10.90;83.20;;;;;;5060857;28;20450;-47
2023/11/10 12:02:39;;;;;;;3.40;0.90;;;10.90;83.00;;;;;;5057440;28;20867;-49
2023/11/10 12:05:12;;;;;;;1.20;0.70;;;10.90;83.10;;;;;;5058144;28;20945;-49
2023/11/10 12:07:44;;;;;;;1.23;0.63;;;10.90;83.30;;;;;;5062834;28;21040;-46
2023/11/10 12:10:14;;;;;;;1.20;0.70;;;10.90;83.00;;;;;;5060256;28;20453;-46
2023/11/10 12:12:44;;;;;;;2.60;1.07;;;10.90;83.40;;;;;;5058969;28;20836;-46
2023/11/10 12:15:16;;;;;;;2.17;0.90;;;10.90;83.50;;;;;;5060914;28;20466;-47
2023/11/10 12:17:44;;;;;;;2.10;0.97;;;10.90;83.30;;;;;;5058335;28;20530;-48
2023/11/10 12:20:13;;;;;;;1.27;0.50;;;10.90;83.10;;;;;;5056395;28;20803;-49
2023/11/10 12:22:52;;;;;;;2.27;0.80;;;10.90;83.10;;;;;;5064207;28;20547;-47
2023/11/10 12:25:20;;;;;;;1.90;0.90;;;10.90;83.10;;;;;;5056805;28;20718;-46
2023/11/10 12:27:50;;;;;;;1.33;0.60;;;10.90;83.20;;;;;;5057880;28;20460;-49
2023/11/10 12:30:18;;;;;;;1.63;0.80;;;10.90;83.20;;;;;;5059419;28;20424;-47
2023/11/10 12:32:48;;;;;;;4.87;0.80;;;10.90;83.30;;;;;;5058046;28;20459;-47
2023/11/10 12:35:19;;;;;;;1.67;0.60;;;10.80;83.10;;;;;;5061150;28;20948;-47
2023/11/10 12:37:55;;;;;;;1.13;0.63;;;10.90;83.40;;;;;;5057496;28;20524;-47
2023/11/10 12:40:24;;;;;;;1.33;0.67;;;10.90;83.30;;;;;;5067580;28;20438;-51
2023/11/10 12:42:53;;;;;;;1.47;0.70;;;10.90;83.20;;;;;;5068103;28;20478;-46
2023/11/10 12:45:22;;;;;;;5.80;1.10;;;10.90;83.70;;;;;;5068743;28;20957;-49
2023/11/10 12:47:52;;;;;;;2.83;0.80;;;10.90;83.40;;;;;;5066036;28;20467;-47
2023/11/10 12:50:32;;;;;;;1.53;0.60;;;10.90;83.40;;;;;;5061009;28;20438;-49
2023/11/10 12:53:03;;;;;;;1.80;0.77;;;10.90;83.50;;;;;;5061878;28;20464;-46
2023/11/10 12:55:32;;;;;;;2.50;0.87;;;10.90;83.40;;;;;;5062122;28;20472;-48
2023/11/10 12:58:00;;;;;;;2.83;0.63;;;10.90;83.70;;;;;;5061322;28;20843;-49
2023/11/10 13:00:29;;;;;;;1.20;0.50;;;10.90;83.60;;;;;;5062814;28;20462;-48